Decoded Metar for LFBM (MONT-DE-MARSAN in FRANCE) (IATA:N/A) | Meteo·Mobile Aviation Weather
aviador You're here:

LFBM Decoded Metar

MONT-DE-MARSAN in FRANCE
Report Time2018-09-21 09:00:00
UTC Time2018-09-21 09:30:02
Flight Rules ifr IFR
Wind240° at 05 kt
W.Decomp.*RWY 27: 4.3 kt HW 2.5 kt LCW
W.Rank240° ranks 13
Current wind is below 240° avg. (5.2)
Visibility9999 m
Phenomena:N/A
Clouds:Overcast 009 Hf
Expected CloudBase > 800 ft AGL from Temp-Dew spread
Ceiling900 ft
Temp21°C (ISA +6)
Dew Point19°C (88% RH)
QNH1020 hPa
Density Alt1,010 ft
Elevation207 ft
Report Wrong Elevation
Raw Report
LFBM 210900Z AUTO 24005KT 200V280 9999 OVC009 21/19 Q1020 BECMG
BKN015=

Extra information for LFBM:More info

Metar Taf Metar & Taf Last 4 Metars F.Rules Stats Wind Profile Meteogram Temp Stats Airport Information Weather charts Add Link Nearby VenuesMetar ALERT Operation Metar Decoded Social comments